sensor_id;sensor_type;location;lat;lon;timestamp;temperature;humidity
4840;DHT22;2434;48.486;7.964;2022-07-30T00:00:26;23.80;35.50
4840;DHT22;2434;48.486;7.964;2022-07-30T00:02:54;23.70;36.10
4840;DHT22;2434;48.486;7.964;2022-07-30T00:05:23;23.70;35.90
4840;DHT22;2434;48.486;7.964;2022-07-30T00:07:51;23.60;36.50
4840;DHT22;2434;48.486;7.964;2022-07-30T00:10:19;23.50;37.10
4840;DHT22;2434;48.486;7.964;2022-07-30T00:12:48;23.50;37.30
4840;DHT22;2434;48.486;7.964;2022-07-30T00:15:18;23.40;37.60
4840;DHT22;2434;48.486;7.964;2022-07-30T00:17:46;23.40;37.40
4840;DHT22;2434;48.486;7.964;2022-07-30T00:20:15;23.40;37.40
4840;DHT22;2434;48.486;7.964;2022-07-30T00:22:44;23.40;37.40
4840;DHT22;2434;48.486;7.964;2022-07-30T00:25:13;23.30;37.90
4840;DHT22;2434;48.486;7.964;2022-07-30T00:27:41;23.30;37.90
4840;DHT22;2434;48.486;7.964;2022-07-30T00:30:11;23.30;38.00
4840;DHT22;2434;48.486;7.964;2022-07-30T00:32:43;23.20;38.00
4840;DHT22;2434;48.486;7.964;2022-07-30T00:35:12;23.20;38.20
4840;DHT22;2434;48.486;7.964;2022-07-30T00:37:40;23.10;38.30
4840;DHT22;2434;48.486;7.964;2022-07-30T00:40:09;23.00;38.50
4840;DHT22;2434;48.486;7.964;2022-07-30T00:42:38;23.00;38.50
4840;DHT22;2434;48.486;7.964;2022-07-30T00:45:08;23.00;38.70
4840;DHT22;2434;48.486;7.964;2022-07-30T00:47:37;22.90;39.10
4840;DHT22;2434;48.486;7.964;2022-07-30T00:50:09;22.80;39.40
4840;DHT22;2434;48.486;7.964;2022-07-30T00:52:38;22.80;39.50
4840;DHT22;2434;48.486;7.964;2022-07-30T00:55:08;22.70;40.00
4840;DHT22;2434;48.486;7.964;2022-07-30T00:57:37;22.60;40.40
4840;DHT22;2434;48.486;7.964;2022-07-30T01:00:08;22.60;40.70
4840;DHT22;2434;48.486;7.964;2022-07-30T01:02:37;22.50;41.20
4840;DHT22;2434;48.486;7.964;2022-07-30T01:05:08;22.40;41.50
4840;DHT22;2434;48.486;7.964;2022-07-30T01:07:37;22.40;41.70
4840;DHT22;2434;48.486;7.964;2022-07-30T01:10:07;22.30;42.00
4840;DHT22;2434;48.486;7.964;2022-07-30T01:12:36;22.20;42.30
4840;DHT22;2434;48.486;7.964;2022-07-30T01:15:07;22.20;42.40
4840;DHT22;2434;48.486;7.964;2022-07-30T01:17:36;22.20;43.00
4840;DHT22;2434;48.486;7.964;2022-07-30T01:20:08;22.10;43.10
4840;DHT22;2434;48.486;7.964;2022-07-30T01:22:51;22.10;43.00
4840;DHT22;2434;48.486;7.964;2022-07-30T01:25:39;22.10;43.00
4840;DHT22;2434;48.486;7.964;2022-07-30T01:28:11;22.00;43.20
4840;DHT22;2434;48.486;7.964;2022-07-30T01:30:45;21.90;43.50
4840;DHT22;2434;48.486;7.964;2022-07-30T01:33:17;21.90;43.70
4840;DHT22;2434;48.486;7.964;2022-07-30T01:35:46;21.90;43.80
4840;DHT22;2434;48.486;7.964;2022-07-30T01:38:16;21.80;43.80
4840;DHT22;2434;48.486;7.964;2022-07-30T01:40:50;21.70;44.10
4840;DHT22;2434;48.486;7.964;2022-07-30T01:43:20;21.60;44.20
4840;DHT22;2434;48.486;7.964;2022-07-30T01:45:50;21.50;44.70
4840;DHT22;2434;48.486;7.964;2022-07-30T01:48:22;21.50;45.30
4840;DHT22;2434;48.486;7.964;2022-07-30T01:50:55;21.40;45.60
4840;DHT22;2434;48.486;7.964;2022-07-30T01:53:26;21.40;45.50
4840;DHT22;2434;48.486;7.964;2022-07-30T01:55:59;21.40;45.60
4840;DHT22;2434;48.486;7.964;2022-07-30T01:58:31;21.40;45.50
4840;DHT22;2434;48.486;7.964;2022-07-30T02:01:14;21.40;45.60
4840;DHT22;2434;48.486;7.964;2022-07-30T02:03:42;21.40;45.40
4840;DHT22;2434;48.486;7.964;2022-07-30T02:06:16;21.40;45.10
4840;DHT22;2434;48.486;7.964;2022-07-30T02:08:51;21.40;45.40
4840;DHT22;2434;48.486;7.964;2022-07-30T02:11:25;21.40;45.30
4840;DHT22;2434;48.486;7.964;2022-07-30T02:14:17;21.40;45.40
4840;DHT22;2434;48.486;7.964;2022-07-30T02:16:52;21.30;45.80
4840;DHT22;2434;48.486;7.964;2022-07-30T02:19:27;21.30;46.10
4840;DHT22;2434;48.486;7.964;2022-07-30T02:22:03;21.20;45.80
4840;DHT22;2434;48.486;7.964;2022-07-30T02:24:36;21.20;45.90
4840;DHT22;2434;48.486;7.964;2022-07-30T02:27:11;21.20;46.10
4840;DHT22;2434;48.486;7.964;2022-07-30T02:29:42;21.20;46.20
4840;DHT22;2434;48.486;7.964;2022-07-30T02:32:15;21.10;46.20
4840;DHT22;2434;48.486;7.964;2022-07-30T02:34:47;21.10;46.30
4840;DHT22;2434;48.486;7.964;2022-07-30T02:37:18;21.10;46.40
4840;DHT22;2434;48.486;7.964;2022-07-30T02:40:13;21.00;46.60
4840;DHT22;2434;48.486;7.964;2022-07-30T02:42:46;21.00;46.70
4840;DHT22;2434;48.486;7.964;2022-07-30T02:45:19;21.00;46.90
4840;DHT22;2434;48.486;7.964;2022-07-30T02:47:51;21.00;47.10
4840;DHT22;2434;48.486;7.964;2022-07-30T02:50:21;20.90;47.00
4840;DHT22;2434;48.486;7.964;2022-07-30T02:52:51;21.00;47.10
4840;DHT22;2434;48.486;7.964;2022-07-30T02:55:21;21.00;47.20
4840;DHT22;2434;48.486;7.964;2022-07-30T02:57:52;20.90;47.10
4840;DHT22;2434;48.486;7.964;2022-07-30T03:00:21;20.90;47.30
4840;DHT22;2434;48.486;7.964;2022-07-30T03:02:51;20.80;47.00
4840;DHT22;2434;48.486;7.964;2022-07-30T03:05:24;20.80;47.00
4840;DHT22;2434;48.486;7.964;2022-07-30T03:07:55;20.80;47.30
4840;DHT22;2434;48.486;7.964;2022-07-30T03:10:24;20.70;47.20
4840;DHT22;2434;48.486;7.964;2022-07-30T03:12:55;20.70;47.40
4840;DHT22;2434;48.486;7.964;2022-07-30T03:15:26;20.70;47.30
4840;DHT22;2434;48.486;7.964;2022-07-30T03:17:58;20.70;47.50
4840;DHT22;2434;48.486;7.964;2022-07-30T03:20:30;20.60;47.50
4840;DHT22;2434;48.486;7.964;2022-07-30T03:23:01;20.60;47.60
4840;DHT22;2434;48.486;7.964;2022-07-30T03:25:31;20.60;47.60
4840;DHT22;2434;48.486;7.964;2022-07-30T03:28:02;20.50;48.10
4840;DHT22;2434;48.486;7.964;2022-07-30T03:30:32;20.50;48.40
4840;DHT22;2434;48.486;7.964;2022-07-30T03:33:01;20.40;48.20
4840;DHT22;2434;48.486;7.964;2022-07-30T03:35:30;20.40;48.20
4840;DHT22;2434;48.486;7.964;2022-07-30T03:38:00;20.40;48.60
4840;DHT22;2434;48.486;7.964;2022-07-30T03:40:30;20.30;48.70
4840;DHT22;2434;48.486;7.964;2022-07-30T03:43:00;20.30;48.90
4840;DHT22;2434;48.486;7.964;2022-07-30T03:45:30;20.20;49.00
4840;DHT22;2434;48.486;7.964;2022-07-30T03:48:06;20.20;49.40
4840;DHT22;2434;48.486;7.964;2022-07-30T03:50:41;20.20;49.30
4840;DHT22;2434;48.486;7.964;2022-07-30T03:53:09;20.10;49.50
4840;DHT22;2434;48.486;7.964;2022-07-30T03:56:01;20.10;49.90
4840;DHT22;2434;48.486;7.964;2022-07-30T03:58:56;20.10;49.70
4840;DHT22;2434;48.486;7.964;2022-07-30T04:01:24;20.00;49.90
4840;DHT22;2434;48.486;7.964;2022-07-30T04:04:03;20.00;49.80
4840;DHT22;2434;48.486;7.964;2022-07-30T04:06:33;20.00;50.00
4840;DHT22;2434;48.486;7.964;2022-07-30T04:09:06;20.00;49.80
4840;DHT22;2434;48.486;7.964;2022-07-30T04:11:36;20.00;49.80
4840;DHT22;2434;48.486;7.964;2022-07-30T04:14:11;19.90;50.00
4840;DHT22;2434;48.486;7.964;2022-07-30T04:16:46;19.90;49.70
4840;DHT22;2434;48.486;7.964;2022-07-30T04:19:23;19.90;50.20
4840;DHT22;2434;48.486;7.964;2022-07-30T04:21:53;19.90;50.30
4840;DHT22;2434;48.486;7.964;2022-07-30T04:24:24;19.90;50.50
4840;DHT22;2434;48.486;7.964;2022-07-30T04:26:53;19.90;50.70
4840;DHT22;2434;48.486;7.964;2022-07-30T04:29:23;19.80;50.50
4840;DHT22;2434;48.486;7.964;2022-07-30T04:31:53;19.80;50.60
4840;DHT22;2434;48.486;7.964;2022-07-30T04:35:00;19.70;51.10
4840;DHT22;2434;48.486;7.964;2022-07-30T04:37:48;19.80;51.30
4840;DHT22;2434;48.486;7.964;2022-07-30T04:40:17;19.70;51.20
4840;DHT22;2434;48.486;7.964;2022-07-30T04:42:46;19.80;50.60
4840;DHT22;2434;48.486;7.964;2022-07-30T04:45:15;19.70;51.10
4840;DHT22;2434;48.486;7.964;2022-07-30T04:47:50;19.70;51.20
4840;DHT22;2434;48.486;7.964;2022-07-30T04:50:41;19.70;51.00
4840;DHT22;2434;48.486;7.964;2022-07-30T04:53:12;19.70;51.70
4840;DHT22;2434;48.486;7.964;2022-07-30T04:55:48;19.70;51.80
4840;DHT22;2434;48.486;7.964;2022-07-30T04:58:19;19.70;51.90
4840;DHT22;2434;48.486;7.964;2022-07-30T05:00:50;19.70;52.30
4840;DHT22;2434;48.486;7.964;2022-07-30T05:03:25;19.70;52.10
4840;DHT22;2434;48.486;7.964;2022-07-30T05:05:55;19.70;52.60
4840;DHT22;2434;48.486;7.964;2022-07-30T05:08:28;19.70;52.80
4840;DHT22;2434;48.486;7.964;2022-07-30T05:10:59;19.70;53.10
4840;DHT22;2434;48.486;7.964;2022-07-30T05:13:27;19.80;52.90
4840;DHT22;2434;48.486;7.964;2022-07-30T05:16:04;19.70;53.40
4840;DHT22;2434;48.486;7.964;2022-07-30T05:18:33;19.70;52.40
4840;DHT22;2434;48.486;7.964;2022-07-30T05:21:02;19.70;52.70
4840;DHT22;2434;48.486;7.964;2022-07-30T05:23:36;19.80;52.80
4840;DHT22;2434;48.486;7.964;2022-07-30T05:26:18;19.80;53.10
4840;DHT22;2434;48.486;7.964;2022-07-30T05:28:49;19.80;53.50
4840;DHT22;2434;48.486;7.964;2022-07-30T05:31:29;19.90;53.30
4840;DHT22;2434;48.486;7.964;2022-07-30T05:34:01;19.90;53.50
4840;DHT22;2434;48.486;7.964;2022-07-30T05:36:39;19.90;53.00
4840;DHT22;2434;48.486;7.964;2022-07-30T05:39:10;19.90;52.80
4840;DHT22;2434;48.486;7.964;2022-07-30T05:41:51;20.00;52.10
4840;DHT22;2434;48.486;7.964;2022-07-30T05:44:24;20.00;52.30
4840;DHT22;2434;48.486;7.964;2022-07-30T05:46:55;20.00;51.90
4840;DHT22;2434;48.486;7.964;2022-07-30T05:49:24;20.10;52.00
4840;DHT22;2434;48.486;7.964;2022-07-30T05:51:59;20.10;51.60
4840;DHT22;2434;48.486;7.964;2022-07-30T05:54:27;20.10;51.80
4840;DHT22;2434;48.486;7.964;2022-07-30T05:57:19;20.20;51.80
4840;DHT22;2434;48.486;7.964;2022-07-30T05:59:47;20.20;51.20
4840;DHT22;2434;48.486;7.964;2022-07-30T06:02:25;20.20;51.70
4840;DHT22;2434;48.486;7.964;2022-07-30T06:05:12;20.20;52.10
4840;DHT22;2434;48.486;7.964;2022-07-30T06:07:42;19.90;56.40
4840;DHT22;2434;48.486;7.964;2022-07-30T06:10:10;20.10;54.10
4840;DHT22;2434;48.486;7.964;2022-07-30T06:12:38;20.20;53.40
4840;DHT22;2434;48.486;7.964;2022-07-30T06:15:09;20.30;53.70
4840;DHT22;2434;48.486;7.964;2022-07-30T06:17:45;20.40;52.80
4840;DHT22;2434;48.486;7.964;2022-07-30T06:20:47;20.40;52.50
4840;DHT22;2434;48.486;7.964;2022-07-30T06:23:40;20.50;52.40
4840;DHT22;2434;48.486;7.964;2022-07-30T06:26:26;20.50;52.30
4840;DHT22;2434;48.486;7.964;2022-07-30T06:28:54;20.30;54.40
4840;DHT22;2434;48.486;7.964;2022-07-30T06:31:28;20.30;54.10
4840;DHT22;2434;48.486;7.964;2022-07-30T06:33:58;20.30;53.40
4840;DHT22;2434;48.486;7.964;2022-07-30T06:36:31;20.40;52.30
4840;DHT22;2434;48.486;7.964;2022-07-30T06:39:03;20.50;51.90
4840;DHT22;2434;48.486;7.964;2022-07-30T06:41:57;20.50;50.40
4840;DHT22;2434;48.486;7.964;2022-07-30T06:44:31;20.60;49.90
4840;DHT22;2434;48.486;7.964;2022-07-30T06:47:20;20.60;49.00
4840;DHT22;2434;48.486;7.964;2022-07-30T06:49:53;20.70;49.40
4840;DHT22;2434;48.486;7.964;2022-07-30T06:52:23;20.80;50.00
4840;DHT22;2434;48.486;7.964;2022-07-30T06:54:53;20.90;49.80
4840;DHT22;2434;48.486;7.964;2022-07-30T06:57:38;20.90;49.70
4840;DHT22;2434;48.486;7.964;2022-07-30T07:00:27;21.10;48.10
4840;DHT22;2434;48.486;7.964;2022-07-30T07:02:59;21.10;48.30
4840;DHT22;2434;48.486;7.964;2022-07-30T07:05:36;21.20;46.80
4840;DHT22;2434;48.486;7.964;2022-07-30T07:08:05;21.10;44.80
4840;DHT22;2434;48.486;7.964;2022-07-30T07:10:43;21.10;45.40
4840;DHT22;2434;48.486;7.964;2022-07-30T07:13:19;21.20;45.40
4840;DHT22;2434;48.486;7.964;2022-07-30T07:15:48;21.20;45.40
4840;DHT22;2434;48.486;7.964;2022-07-30T07:18:20;21.30;45.20
4840;DHT22;2434;48.486;7.964;2022-07-30T07:25:42;21.40;44.90
4840;DHT22;2434;48.486;7.964;2022-07-30T07:28:11;21.50;45.00
4840;DHT22;2434;48.486;7.964;2022-07-30T07:30:43;21.60;45.80
4840;DHT22;2434;48.486;7.964;2022-07-30T07:33:13;21.60;44.30
4840;DHT22;2434;48.486;7.964;2022-07-30T07:35:45;21.70;43.40
4840;DHT22;2434;48.486;7.964;2022-07-30T07:38:23;21.70;43.80
4840;DHT22;2434;48.486;7.964;2022-07-30T07:40:54;21.70;43.30
4840;DHT22;2434;48.486;7.964;2022-07-30T07:43:23;21.70;43.00
4840;DHT22;2434;48.486;7.964;2022-07-30T07:45:55;21.90;43.00
4840;DHT22;2434;48.486;7.964;2022-07-30T07:48:26;21.90;42.20
4840;DHT22;2434;48.486;7.964;2022-07-30T07:51:02;21.80;41.90
4840;DHT22;2434;48.486;7.964;2022-07-30T07:53:35;21.90;42.30
4840;DHT22;2434;48.486;7.964;2022-07-30T07:56:05;22.10;43.30
4840;DHT22;2434;48.486;7.964;2022-07-30T07:58:35;22.10;42.30
4840;DHT22;2434;48.486;7.964;2022-07-30T08:01:08;22.20;40.20
4840;DHT22;2434;48.486;7.964;2022-07-30T08:03:57;22.20;42.00
4840;DHT22;2434;48.486;7.964;2022-07-30T08:06:54;22.30;40.70
4840;DHT22;2434;48.486;7.964;2022-07-30T08:09:40;22.30;40.80
4840;DHT22;2434;48.486;7.964;2022-07-30T08:12:47;22.40;42.30
4840;DHT22;2434;48.486;7.964;2022-07-30T08:15:16;22.50;39.80
4840;DHT22;2434;48.486;7.964;2022-07-30T08:18:13;22.50;39.20
4840;DHT22;2434;48.486;7.964;2022-07-30T08:21:08;22.50;39.60
4840;DHT22;2434;48.486;7.964;2022-07-30T08:23:36;22.60;39.80
4840;DHT22;2434;48.486;7.964;2022-07-30T08:26:08;22.70;39.00
4840;DHT22;2434;48.486;7.964;2022-07-30T08:28:38;22.70;39.80
4840;DHT22;2434;48.486;7.964;2022-07-30T08:31:09;22.80;39.10
4840;DHT22;2434;48.486;7.964;2022-07-30T08:33:37;22.90;39.10
4840;DHT22;2434;48.486;7.964;2022-07-30T08:36:06;23.00;38.00
4840;DHT22;2434;48.486;7.964;2022-07-30T08:38:37;23.00;38.30
4840;DHT22;2434;48.486;7.964;2022-07-30T08:41:07;23.10;38.00
4840;DHT22;2434;48.486;7.964;2022-07-30T08:43:35;23.20;37.70
4840;DHT22;2434;48.486;7.964;2022-07-30T08:46:08;23.30;36.80
4840;DHT22;2434;48.486;7.964;2022-07-30T08:48:46;23.40;35.00
4840;DHT22;2434;48.486;7.964;2022-07-30T08:51:15;23.40;36.20
4840;DHT22;2434;48.486;7.964;2022-07-30T08:53:59;23.40;35.10
4840;DHT22;2434;48.486;7.964;2022-07-30T08:56:29;23.50;36.80
4840;DHT22;2434;48.486;7.964;2022-07-30T08:58:59;23.50;34.90
4840;DHT22;2434;48.486;7.964;2022-07-30T09:01:29;23.60;33.40
4840;DHT22;2434;48.486;7.964;2022-07-30T09:03:57;23.60;33.10
4840;DHT22;2434;48.486;7.964;2022-07-30T09:06:27;23.80;30.50
4840;DHT22;2434;48.486;7.964;2022-07-30T09:08:55;23.80;30.50
4840;DHT22;2434;48.486;7.964;2022-07-30T09:11:24;23.90;31.70
4840;DHT22;2434;48.486;7.964;2022-07-30T09:13:52;24.00;32.30
4840;DHT22;2434;48.486;7.964;2022-07-30T09:16:23;24.30;31.40
4840;DHT22;2434;48.486;7.964;2022-07-30T09:18:55;24.30;28.20
4840;DHT22;2434;48.486;7.964;2022-07-30T09:21:24;24.20;29.80
4840;DHT22;2434;48.486;7.964;2022-07-30T09:24:14;24.30;27.60
4840;DHT22;2434;48.486;7.964;2022-07-30T09:26:54;24.10;28.50
4840;DHT22;2434;48.486;7.964;2022-07-30T09:29:41;24.20;28.50
4840;DHT22;2434;48.486;7.964;2022-07-30T09:32:46;24.20;28.40
4840;DHT22;2434;48.486;7.964;2022-07-30T09:35:28;24.40;27.20
4840;DHT22;2434;48.486;7.964;2022-07-30T09:38:17;24.50;27.10
4840;DHT22;2434;48.486;7.964;2022-07-30T09:40:49;24.50;25.80
4840;DHT22;2434;48.486;7.964;2022-07-30T09:43:41;24.50;27.00
4840;DHT22;2434;48.486;7.964;2022-07-30T09:46:18;24.50;28.50
4840;DHT22;2434;48.486;7.964;2022-07-30T09:48:47;24.80;26.80
4840;DHT22;2434;48.486;7.964;2022-07-30T09:51:17;24.90;26.70
4840;DHT22;2434;48.486;7.964;2022-07-30T09:54:05;25.00;27.10
4840;DHT22;2434;48.486;7.964;2022-07-30T09:56:35;24.90;24.80
4840;DHT22;2434;48.486;7.964;2022-07-30T09:59:04;24.80;25.40
4840;DHT22;2434;48.486;7.964;2022-07-30T10:01:51;24.80;25.90
4840;DHT22;2434;48.486;7.964;2022-07-30T10:04:45;24.90;25.10
4840;DHT22;2434;48.486;7.964;2022-07-30T10:07:18;25.00;27.10
4840;DHT22;2434;48.486;7.964;2022-07-30T10:09:52;25.20;25.10
4840;DHT22;2434;48.486;7.964;2022-07-30T10:12:23;25.40;25.30
4840;DHT22;2434;48.486;7.964;2022-07-30T10:14:53;25.30;23.00
4840;DHT22;2434;48.486;7.964;2022-07-30T10:17:22;25.50;23.40
4840;DHT22;2434;48.486;7.964;2022-07-30T10:20:13;25.70;23.00
4840;DHT22;2434;48.486;7.964;2022-07-30T10:23:05;26.10;23.20
4840;DHT22;2434;48.486;7.964;2022-07-30T10:25:36;25.90;24.00
4840;DHT22;2434;48.486;7.964;2022-07-30T10:28:39;26.10;22.90
4840;DHT22;2434;48.486;7.964;2022-07-30T10:31:10;26.30;22.10
4840;DHT22;2434;48.486;7.964;2022-07-30T10:33:58;26.10;22.30
4840;DHT22;2434;48.486;7.964;2022-07-30T10:36:27;26.20;21.70
4840;DHT22;2434;48.486;7.964;2022-07-30T10:39:00;26.10;22.00
4840;DHT22;2434;48.486;7.964;2022-07-30T10:41:39;26.10;23.00
4840;DHT22;2434;48.486;7.964;2022-07-30T10:44:54;26.30;22.80
4840;DHT22;2434;48.486;7.964;2022-07-30T10:47:26;26.40;23.50
4840;DHT22;2434;48.486;7.964;2022-07-30T10:50:07;26.50;23.80
4840;DHT22;2434;48.486;7.964;2022-07-30T10:52:49;26.50;24.40
4840;DHT22;2434;48.486;7.964;2022-07-30T10:55:21;26.60;22.70
4840;DHT22;2434;48.486;7.964;2022-07-30T10:58:06;26.50;21.90
4840;DHT22;2434;48.486;7.964;2022-07-30T11:00:58;26.40;22.70
4840;DHT22;2434;48.486;7.964;2022-07-30T11:03:27;26.30;22.60
4840;DHT22;2434;48.486;7.964;2022-07-30T11:06:26;26.50;24.10
4840;DHT22;2434;48.486;7.964;2022-07-30T11:08:55;26.70;23.10
4840;DHT22;2434;48.486;7.964;2022-07-30T11:11:43;26.80;23.60
4840;DHT22;2434;48.486;7.964;2022-07-30T11:14:54;27.00;24.20
4840;DHT22;2434;48.486;7.964;2022-07-30T11:17:57;27.20;23.00
4840;DHT22;2434;48.486;7.964;2022-07-30T11:20:26;27.30;23.40
4840;DHT22;2434;48.486;7.964;2022-07-30T11:23:07;27.30;23.10
4840;DHT22;2434;48.486;7.964;2022-07-30T11:25:40;27.20;23.20
4840;DHT22;2434;48.486;7.964;2022-07-30T11:28:39;27.30;23.00
4840;DHT22;2434;48.486;7.964;2022-07-30T11:31:29;27.40;22.40
4840;DHT22;2434;48.486;7.964;2022-07-30T11:34:25;27.50;22.30
4840;DHT22;2434;48.486;7.964;2022-07-30T11:37:08;27.20;22.60
4840;DHT22;2434;48.486;7.964;2022-07-30T11:40:11;26.80;22.40
4840;DHT22;2434;48.486;7.964;2022-07-30T11:42:41;27.00;23.60
4840;DHT22;2434;48.486;7.964;2022-07-30T11:45:25;27.20;24.30
4840;DHT22;2434;48.486;7.964;2022-07-30T11:47:59;27.40;23.00
4840;DHT22;2434;48.486;7.964;2022-07-30T11:50:31;27.50;22.20
4840;DHT22;2434;48.486;7.964;2022-07-30T11:53:00;27.60;23.00
4840;DHT22;2434;48.486;7.964;2022-07-30T11:55:30;27.80;22.80
4840;DHT22;2434;48.486;7.964;2022-07-30T11:58:01;27.90;20.90
4840;DHT22;2434;48.486;7.964;2022-07-30T12:00:36;27.60;21.50
4840;DHT22;2434;48.486;7.964;2022-07-30T12:03:09;27.70;23.40
4840;DHT22;2434;48.486;7.964;2022-07-30T12:05:38;27.90;21.30
4840;DHT22;2434;48.486;7.964;2022-07-30T12:08:07;27.90;21.90
4840;DHT22;2434;48.486;7.964;2022-07-30T12:10:57;28.10;21.20
4840;DHT22;2434;48.486;7.964;2022-07-30T12:13:26;28.30;20.60
4840;DHT22;2434;48.486;7.964;2022-07-30T12:16:15;27.70;20.40
4840;DHT22;2434;48.486;7.964;2022-07-30T12:18:44;27.40;20.80
4840;DHT22;2434;48.486;7.964;2022-07-30T12:21:13;27.60;21.20
4840;DHT22;2434;48.486;7.964;2022-07-30T12:23:52;27.60;20.90
4840;DHT22;2434;48.486;7.964;2022-07-30T12:26:21;27.40;22.00
4840;DHT22;2434;48.486;7.964;2022-07-30T12:28:53;27.50;21.00
4840;DHT22;2434;48.486;7.964;2022-07-30T12:31:23;27.30;21.30
4840;DHT22;2434;48.486;7.964;2022-07-30T12:33:52;27.10;20.80
4840;DHT22;2434;48.486;7.964;2022-07-30T12:36:30;26.80;20.80
4840;DHT22;2434;48.486;7.964;2022-07-30T12:38:59;26.80;21.30
4840;DHT22;2434;48.486;7.964;2022-07-30T12:41:41;26.90;21.00
4840;DHT22;2434;48.486;7.964;2022-07-30T12:44:09;26.90;20.60
4840;DHT22;2434;48.486;7.964;2022-07-30T12:46:40;27.00;20.60
4840;DHT22;2434;48.486;7.964;2022-07-30T12:49:09;27.20;20.60
4840;DHT22;2434;48.486;7.964;2022-07-30T12:51:51;27.50;20.00
4840;DHT22;2434;48.486;7.964;2022-07-30T12:54:26;27.60;21.20
4840;DHT22;2434;48.486;7.964;2022-07-30T12:56:56;27.90;19.30
4840;DHT22;2434;48.486;7.964;2022-07-30T12:59:27;27.90;20.00
4840;DHT22;2434;48.486;7.964;2022-07-30T13:01:58;28.30;18.30
4840;DHT22;2434;48.486;7.964;2022-07-30T13:04:27;28.10;20.50
4840;DHT22;2434;48.486;7.964;2022-07-30T13:07:05;28.40;19.80
4840;DHT22;2434;48.486;7.964;2022-07-30T13:09:34;28.50;19.10
4840;DHT22;2434;48.486;7.964;2022-07-30T13:12:03;28.70;18.50
4840;DHT22;2434;48.486;7.964;2022-07-30T13:14:31;28.80;19.00
4840;DHT22;2434;48.486;7.964;2022-07-30T13:17:01;28.90;17.80
4840;DHT22;2434;48.486;7.964;2022-07-30T13:19:31;29.00;18.20
4840;DHT22;2434;48.486;7.964;2022-07-30T13:21:59;29.00;18.50
4840;DHT22;2434;48.486;7.964;2022-07-30T13:24:27;28.50;17.60
4840;DHT22;2434;48.486;7.964;2022-07-30T13:26:55;28.50;17.90
4840;DHT22;2434;48.486;7.964;2022-07-30T13:29:24;28.60;17.50
4840;DHT22;2434;48.486;7.964;2022-07-30T13:31:52;28.70;17.50
4840;DHT22;2434;48.486;7.964;2022-07-30T13:34:21;28.70;18.40
4840;DHT22;2434;48.486;7.964;2022-07-30T13:36:50;28.80;17.60
4840;DHT22;2434;48.486;7.964;2022-07-30T13:39:18;28.90;17.80
4840;DHT22;2434;48.486;7.964;2022-07-30T13:41:46;28.70;19.10
4840;DHT22;2434;48.486;7.964;2022-07-30T13:44:14;28.90;18.50
4840;DHT22;2434;48.486;7.964;2022-07-30T13:46:43;29.30;17.60
4840;DHT22;2434;48.486;7.964;2022-07-30T13:49:11;29.10;18.90
4840;DHT22;2434;48.486;7.964;2022-07-30T13:51:41;29.10;17.10
4840;DHT22;2434;48.486;7.964;2022-07-30T13:54:09;29.20;18.30
4840;DHT22;2434;48.486;7.964;2022-07-30T13:56:39;29.20;19.60
4840;DHT22;2434;48.486;7.964;2022-07-30T13:59:08;29.40;17.90
4840;DHT22;2434;48.486;7.964;2022-07-30T14:01:38;29.20;19.10
4840;DHT22;2434;48.486;7.964;2022-07-30T14:04:07;28.80;18.90
4840;DHT22;2434;48.486;7.964;2022-07-30T14:06:35;29.10;19.10
4840;DHT22;2434;48.486;7.964;2022-07-30T14:09:05;29.00;18.30
4840;DHT22;2434;48.486;7.964;2022-07-30T14:11:33;29.10;17.40
4840;DHT22;2434;48.486;7.964;2022-07-30T14:14:01;29.30;18.20
4840;DHT22;2434;48.486;7.964;2022-07-30T14:16:30;29.10;18.00
4840;DHT22;2434;48.486;7.964;2022-07-30T14:19:13;28.70;17.50
4840;DHT22;2434;48.486;7.964;2022-07-30T14:21:50;28.70;17.30
4840;DHT22;2434;48.486;7.964;2022-07-30T14:24:21;28.80;18.80
4840;DHT22;2434;48.486;7.964;2022-07-30T14:26:50;29.00;18.10
4840;DHT22;2434;48.486;7.964;2022-07-30T14:29:23;29.30;16.70
4840;DHT22;2434;48.486;7.964;2022-07-30T14:31:52;29.30;16.80
4840;DHT22;2434;48.486;7.964;2022-07-30T14:34:21;29.00;16.90
4840;DHT22;2434;48.486;7.964;2022-07-30T14:36:49;28.90;16.90
4840;DHT22;2434;48.486;7.964;2022-07-30T14:39:18;28.90;16.70
4840;DHT22;2434;48.486;7.964;2022-07-30T14:41:48;29.10;17.40
4840;DHT22;2434;48.486;7.964;2022-07-30T14:44:21;29.20;17.30
4840;DHT22;2434;48.486;7.964;2022-07-30T14:46:50;29.40;17.10
4840;DHT22;2434;48.486;7.964;2022-07-30T14:49:19;29.40;16.90
4840;DHT22;2434;48.486;7.964;2022-07-30T14:51:49;28.90;16.30
4840;DHT22;2434;48.486;7.964;2022-07-30T14:54:18;28.70;16.80
4840;DHT22;2434;48.486;7.964;2022-07-30T14:56:48;28.60;16.90
4840;DHT22;2434;48.486;7.964;2022-07-30T14:59:22;28.50;17.40
4840;DHT22;2434;48.486;7.964;2022-07-30T15:01:50;28.50;17.00
4840;DHT22;2434;48.486;7.964;2022-07-30T15:04:19;28.70;17.20
4840;DHT22;2434;48.486;7.964;2022-07-30T15:06:47;28.70;16.70
4840;DHT22;2434;48.486;7.964;2022-07-30T15:09:17;28.70;16.40
4840;DHT22;2434;48.486;7.964;2022-07-30T15:11:48;28.60;16.10
4840;DHT22;2434;48.486;7.964;2022-07-30T15:14:37;28.50;17.00
4840;DHT22;2434;48.486;7.964;2022-07-30T15:17:06;28.50;16.60
4840;DHT22;2434;48.486;7.964;2022-07-30T15:19:34;28.50;16.80
4840;DHT22;2434;48.486;7.964;2022-07-30T15:22:12;28.50;17.70
4840;DHT22;2434;48.486;7.964;2022-07-30T15:24:40;28.40;17.80
4840;DHT22;2434;48.486;7.964;2022-07-30T15:27:10;28.20;17.60
4840;DHT22;2434;48.486;7.964;2022-07-30T15:29:38;28.30;17.60
4840;DHT22;2434;48.486;7.964;2022-07-30T15:32:07;28.50;17.60
4840;DHT22;2434;48.486;7.964;2022-07-30T15:34:35;28.50;17.70
4840;DHT22;2434;48.486;7.964;2022-07-30T15:37:03;28.50;17.90
4840;DHT22;2434;48.486;7.964;2022-07-30T15:39:32;28.60;18.20
4840;DHT22;2434;48.486;7.964;2022-07-30T15:42:02;28.70;17.10
4840;DHT22;2434;48.486;7.964;2022-07-30T15:44:33;28.70;17.10
4840;DHT22;2434;48.486;7.964;2022-07-30T15:47:11;28.80;17.60
4840;DHT22;2434;48.486;7.964;2022-07-30T15:49:39;28.90;17.50
4840;DHT22;2434;48.486;7.964;2022-07-30T15:52:08;29.00;17.80
4840;DHT22;2434;48.486;7.964;2022-07-30T15:54:36;28.90;17.50
4840;DHT22;2434;48.486;7.964;2022-07-30T15:57:04;28.90;17.60
4840;DHT22;2434;48.486;7.964;2022-07-30T15:59:34;28.70;17.40
4840;DHT22;2434;48.486;7.964;2022-07-30T16:02:03;28.70;17.20
4840;DHT22;2434;48.486;7.964;2022-07-30T16:04:32;28.70;17.70
4840;DHT22;2434;48.486;7.964;2022-07-30T16:07:01;28.80;17.40
4840;DHT22;2434;48.486;7.964;2022-07-30T16:09:30;28.80;17.20
4840;DHT22;2434;48.486;7.964;2022-07-30T16:11:59;28.90;17.10
4840;DHT22;2434;48.486;7.964;2022-07-30T16:14:28;28.90;17.00
4840;DHT22;2434;48.486;7.964;2022-07-30T16:16:57;28.80;17.20
4840;DHT22;2434;48.486;7.964;2022-07-30T16:19:26;28.80;16.10
4840;DHT22;2434;48.486;7.964;2022-07-30T16:21:54;28.80;16.30
4840;DHT22;2434;48.486;7.964;2022-07-30T16:24:23;28.90;16.20
4840;DHT22;2434;48.486;7.964;2022-07-30T16:26:51;29.00;16.70
4840;DHT22;2434;48.486;7.964;2022-07-30T16:29:19;28.90;15.70
4840;DHT22;2434;48.486;7.964;2022-07-30T16:31:48;28.90;16.00
4840;DHT22;2434;48.486;7.964;2022-07-30T16:34:18;29.00;17.10
4840;DHT22;2434;48.486;7.964;2022-07-30T16:36:52;28.90;15.80
4840;DHT22;2434;48.486;7.964;2022-07-30T16:39:21;28.90;16.10
4840;DHT22;2434;48.486;7.964;2022-07-30T16:41:49;28.80;16.40
4840;DHT22;2434;48.486;7.964;2022-07-30T16:44:17;28.80;16.50
4840;DHT22;2434;48.486;7.964;2022-07-30T16:46:46;28.80;17.20
4840;DHT22;2434;48.486;7.964;2022-07-30T16:49:14;28.90;16.80